Terminal Aerodrome Forecast
Issued by NWS

Home | Current Version | Previous Version | Text Only | Print | Product List | Glossary On
Versions: 1 2 3 4 5 6 7 8 9 10 11 12 13 14 15 16 17
000
FTUS41 KCLE 301139
TAFFDY
TAF
KFDY 301139Z 3012/3112 VRB03KT P6SM BKN045 OVC100
      TEMPO 3012/3014 3SM BR
     FM301400 22010KT P6SM SCT050 BKN150
     FM310000 22005KT P6SM FEW150 SCT250
     FM311000 21003KT 4SM BR SKC=

USA.gov is the U.S. government's official web portal to all federal, state and local government web resources and services.